Time;durP1;ratioP1;P1;durP2;ratioP2;P2;SDS_P1;SDS_P2;PMS_P1;PMS_P2;Temp;Humidity;BMP_temperature;BMP_pressure;BME280_temperature;BME280_humidity;BME280_pressure;Samples;Min_cycle;Max_cycle;Signal;HPM_P1;HPM_P2
2023/04/20 00:00:10;;;;;;;6.90;2.10;;;8.60;99.90;;;;;;5077573;28;20296;-61
2023/04/20 00:02:38;;;;;;;2.70;1.97;;;8.60;99.90;;;;;;5078296;28;20663;-61
2023/04/20 00:05:06;;;;;;;2.20;2.00;;;8.50;99.90;;;;;;5064397;28;20229;-60
2023/04/20 00:07:34;;;;;;;2.47;1.90;;;8.50;99.90;;;;;;5072201;28;20214;-61
2023/04/20 00:10:02;;;;;;;4.87;2.00;;;8.50;99.90;;;;;;5055781;28;20198;-61
2023/04/20 00:12:29;;;;;;;4.50;2.73;;;8.40;99.90;;;;;;5056047;28;20230;-61
2023/04/20 00:14:56;;;;;;;4.00;2.00;;;8.40;99.90;;;;;;5056963;28;20582;-61
2023/04/20 00:17:23;;;;;;;3.77;2.30;;;8.40;99.90;;;;;;5061366;28;20205;-61
2023/04/20 00:19:50;;;;;;;4.33;1.80;;;8.40;99.90;;;;;;5079192;28;20314;-61
2023/04/20 00:22:18;;;;;;;5.33;2.00;;;8.30;99.90;;;;;;5059781;28;20605;-61
2023/04/20 00:24:45;;;;;;;3.07;1.67;;;8.40;99.90;;;;;;5077775;28;20257;-60
2023/04/20 00:27:12;;;;;;;2.70;1.87;;;8.30;99.90;;;;;;5059942;28;20658;-61
2023/04/20 00:29:39;;;;;;;2.93;2.07;;;8.30;99.90;;;;;;5062177;28;20198;-61
2023/04/20 00:32:06;;;;;;;2.60;2.07;;;8.40;99.90;;;;;;5073241;28;20301;-61
2023/04/20 00:34:33;;;;;;;3.80;2.07;;;8.30;99.90;;;;;;5076659;28;20323;-61
2023/04/20 00:37:00;;;;;;;4.10;2.17;;;8.40;99.90;;;;;;5077705;28;20192;-60
2023/04/20 00:39:26;;;;;;;9.80;2.07;;;8.40;99.90;;;;;;5077878;28;20235;-61
2023/04/20 00:41:53;;;;;;;4.00;1.90;;;8.30;99.90;;;;;;5077139;28;20252;-60
2023/04/20 00:44:20;;;;;;;6.33;2.13;;;8.30;99.90;;;;;;5077874;28;21247;-61
2023/04/20 00:46:47;;;;;;;3.73;2.10;;;8.30;99.90;;;;;;5076334;28;20214;-60
2023/04/20 00:49:14;;;;;;;2.37;1.80;;;8.20;99.90;;;;;;5076843;28;20209;-60
2023/04/20 00:51:41;;;;;;;3.40;2.33;;;8.20;99.90;;;;;;5053576;28;20707;-61
2023/04/20 00:54:08;;;;;;;5.67;2.30;;;8.20;99.90;;;;;;5055857;28;20656;-62
2023/04/20 00:56:37;;;;;;;3.23;1.77;;;8.30;99.90;;;;;;5053844;28;21435;-62
2023/04/20 00:59:04;;;;;;;2.63;1.90;;;8.20;99.90;;;;;;5063076;28;20203;-61
2023/04/20 01:01:31;;;;;;;3.10;1.90;;;8.30;99.90;;;;;;5055258;28;20658;-61
2023/04/20 01:03:58;;;;;;;5.60;2.07;;;8.20;99.90;;;;;;5037895;28;20200;-61
2023/04/20 01:06:26;;;;;;;2.37;2.17;;;8.30;99.90;;;;;;5056708;28;20631;-61
2023/04/20 01:08:53;;;;;;;5.93;1.90;;;8.20;99.90;;;;;;5057305;28;20211;-61
2023/04/20 01:11:20;;;;;;;1.83;1.53;;;8.30;99.90;;;;;;5052435;28;20233;-60
2023/04/20 01:13:48;;;;;;;4.80;2.03;;;8.10;99.90;;;;;;5054184;28;20269;-60
2023/04/20 01:16:15;;;;;;;2.37;1.97;;;8.20;99.90;;;;;;5055311;28;20251;-61
2023/04/20 01:18:47;;;;;;;3.23;2.50;;;8.30;99.90;;;;;;5056172;28;20227;-61
2023/04/20 01:21:16;;;;;;;2.67;1.93;;;8.30;99.90;;;;;;5056703;28;20277;-61
2023/04/20 01:23:44;;;;;;;3.60;1.90;;;8.40;99.90;;;;;;5056716;28;20294;-61
2023/04/20 01:26:16;;;;;;;4.70;2.37;;;8.40;99.90;;;;;;5057890;28;20212;-61
2023/04/20 01:28:44;;;;;;;3.13;1.83;;;8.30;99.90;;;;;;5056645;28;20641;-62
2023/04/20 01:31:12;;;;;;;2.63;1.87;;;8.30;99.90;;;;;;5054610;28;20196;-61
2023/04/20 01:33:39;;;;;;;3.57;2.00;;;8.30;99.90;;;;;;5052493;28;20200;-61
2023/04/20 01:36:08;;;;;;;2.97;1.87;;;8.30;99.90;;;;;;5051935;28;20328;-62
2023/04/20 01:38:35;;;;;;;2.80;2.00;;;8.30;99.90;;;;;;5056268;28;20657;-61
2023/04/20 01:41:04;;;;;;;3.70;2.07;;;8.40;99.90;;;;;;5056335;28;20225;-61
2023/04/20 01:43:33;;;;;;;3.50;2.00;;;8.30;99.90;;;;;;5050577;28;20221;-62
2023/04/20 01:46:00;;;;;;;4.93;1.90;;;8.40;99.90;;;;;;5052433;28;20211;-61
2023/04/20 01:48:27;;;;;;;4.93;2.07;;;8.30;99.90;;;;;;5053830;28;20265;-61
2023/04/20 01:50:54;;;;;;;2.33;2.07;;;8.20;99.90;;;;;;5068193;28;20231;-62
2023/04/20 01:53:22;;;;;;;4.80;2.30;;;8.20;99.90;;;;;;5075020;28;20214;-61
2023/04/20 01:55:49;;;;;;;2.57;1.90;;;8.10;99.90;;;;;;5073833;28;20203;-61
2023/04/20 01:58:16;;;;;;;3.40;1.90;;;8.10;99.90;;;;;;5041757;28;20217;-61
2023/04/20 02:00:43;;;;;;;5.23;2.20;;;8.00;99.90;;;;;;5071764;28;20222;-63
2023/04/20 02:03:10;;;;;;;3.77;1.77;;;7.90;99.90;;;;;;5074528;28;20212;-61
2023/04/20 02:05:37;;;;;;;3.67;2.40;;;8.00;99.90;;;;;;5074189;28;20212;-60
2023/04/20 02:08:04;;;;;;;2.47;1.80;;;7.80;99.90;;;;;;5076250;28;20298;-60
2023/04/20 02:10:31;;;;;;;3.63;2.40;;;8.00;99.90;;;;;;5077180;28;20199;-61
2023/04/20 02:12:58;;;;;;;3.43;1.70;;;7.80;99.90;;;;;;5077305;28;20210;-61
2023/04/20 02:15:25;;;;;;;4.87;2.53;;;7.80;99.90;;;;;;5072172;28;20212;-61
2023/04/20 02:17:52;;;;;;;6.70;2.53;;;7.90;99.90;;;;;;5076141;28;20276;-61
2023/04/20 02:20:20;;;;;;;3.30;2.13;;;7.80;99.90;;;;;;5076692;28;20273;-61
2023/04/20 02:22:47;;;;;;;3.87;2.30;;;7.90;99.90;;;;;;5079274;28;20723;-61
2023/04/20 02:25:14;;;;;;;3.90;2.27;;;7.80;99.90;;;;;;5059715;28;20238;-61
2023/04/20 02:27:41;;;;;;;4.17;2.37;;;7.70;99.90;;;;;;5031976;28;20282;-62
2023/04/20 02:30:09;;;;;;;2.37;2.07;;;7.90;99.90;;;;;;5060364;28;20616;-60
2023/04/20 02:32:36;;;;;;;3.10;2.50;;;7.90;99.90;;;;;;5043048;28;20282;-61
2023/04/20 02:35:03;;;;;;;2.73;2.13;;;7.90;99.90;;;;;;5071859;28;20205;-61
2023/04/20 02:37:31;;;;;;;3.10;2.20;;;8.00;99.90;;;;;;5073723;28;20646;-61
2023/04/20 02:39:57;;;;;;;2.73;2.20;;;7.80;99.90;;;;;;5073857;28;20718;-60
2023/04/20 02:42:25;;;;;;;2.37;2.17;;;7.80;99.90;;;;;;5073882;28;20201;-60
2023/04/20 02:44:52;;;;;;;3.40;2.50;;;7.70;99.90;;;;;;5071336;28;20199;-60
2023/04/20 02:47:19;;;;;;;4.13;2.37;;;7.80;99.90;;;;;;5073102;28;20263;-61
2023/04/20 02:49:46;;;;;;;2.93;2.17;;;7.80;99.90;;;;;;5075425;28;20211;-60
2023/04/20 02:52:13;;;;;;;3.27;2.57;;;7.80;99.90;;;;;;5057529;28;20202;-61
2023/04/20 02:54:40;;;;;;;6.63;2.27;;;7.80;99.90;;;;;;5072288;28;20749;-62
2023/04/20 02:57:07;;;;;;;3.47;2.40;;;7.70;99.90;;;;;;5076497;28;20233;-60
2023/04/20 02:59:34;;;;;;;2.77;2.50;;;7.80;99.90;;;;;;5057765;28;20234;-61
2023/04/20 03:02:01;;;;;;;5.73;2.70;;;7.80;99.90;;;;;;5058238;28;20253;-60
2023/04/20 03:04:29;;;;;;;5.50;2.77;;;7.80;99.90;;;;;;5072059;28;20230;-61
2023/04/20 03:06:57;;;;;;;3.97;2.77;;;7.70;99.90;;;;;;5071956;28;20752;-61
2023/04/20 03:09:24;;;;;;;6.03;2.53;;;7.70;99.90;;;;;;5066466;28;20218;-61
2023/04/20 03:11:51;;;;;;;2.70;2.50;;;7.70;99.90;;;;;;5050445;28;20691;-61
2023/04/20 03:14:18;;;;;;;5.43;2.50;;;7.80;99.90;;;;;;5051953;28;20296;-61
2023/04/20 03:16:45;;;;;;;3.93;2.70;;;7.80;99.90;;;;;;5052038;28;20297;-61
2023/04/20 03:19:12;;;;;;;3.60;2.57;;;7.80;99.90;;;;;;5055839;28;20802;-61
2023/04/20 03:21:39;;;;;;;4.50;2.73;;;7.90;99.90;;;;;;5067686;28;20633;-61
2023/04/20 03:24:06;;;;;;;3.67;2.40;;;8.00;99.90;;;;;;5068513;28;20210;-60
2023/04/20 03:26:33;;;;;;;3.33;2.50;;;8.00;99.90;;;;;;5049151;28;20213;-61
2023/04/20 03:29:00;;;;;;;4.13;2.37;;;8.10;99.90;;;;;;5067733;28;20297;-61
2023/04/20 03:31:27;;;;;;;3.63;2.80;;;8.10;99.90;;;;;;5052778;28;20736;-61
2023/04/20 03:33:54;;;;;;;3.43;2.43;;;8.10;99.90;;;;;;5048880;28;20316;-61
2023/04/20 03:36:21;;;;;;;2.37;2.03;;;8.00;99.90;;;;;;5050030;28;20761;-61
2023/04/20 03:38:48;;;;;;;2.97;2.43;;;8.10;99.90;;;;;;5069413;28;21003;-60
2023/04/20 03:41:15;;;;;;;5.03;2.80;;;8.10;99.90;;;;;;5064645;28;20276;-61
2023/04/20 03:43:42;;;;;;;2.57;2.37;;;8.20;99.90;;;;;;5067689;28;20203;-62
2023/04/20 03:46:09;;;;;;;5.07;2.40;;;8.20;99.90;;;;;;5070434;28;20203;-60
2023/04/20 03:48:36;;;;;;;5.47;2.40;;;8.20;99.90;;;;;;5038067;28;20229;-60
2023/04/20 03:51:03;;;;;;;4.33;2.20;;;8.20;99.90;;;;;;5071757;28;21168;-60
2023/04/20 03:53:30;;;;;;;5.17;2.80;;;8.30;99.90;;;;;;5053448;28;20272;-61
2023/04/20 03:55:57;;;;;;;3.47;2.77;;;8.40;99.90;;;;;;5054677;28;20210;-60
2023/04/20 03:58:24;;;;;;;4.67;2.73;;;8.50;99.90;;;;;;5071388;28;20429;-62
2023/04/20 04:00:50;;;;;;;5.50;2.70;;;8.50;99.90;;;;;;5069792;28;20202;-61
2023/04/20 04:03:17;;;;;;;4.67;2.43;;;8.50;99.90;;;;;;5035375;28;20205;-60
2023/04/20 04:05:45;;;;;;;3.53;2.50;;;8.40;99.90;;;;;;5058377;28;20758;-62
2023/04/20 04:08:11;;;;;;;3.30;2.20;;;8.40;99.90;;;;;;5040671;28;20213;-60
2023/04/20 04:10:38;;;;;;;4.60;2.80;;;8.50;99.90;;;;;;5072863;28;20652;-60
2023/04/20 04:13:05;;;;;;;3.20;2.30;;;8.50;99.90;;;;;;5074210;28;20211;-60
2023/04/20 04:15:32;;;;;;;7.50;2.80;;;8.40;99.90;;;;;;5048648;28;20392;-60
2023/04/20 04:17:59;;;;;;;3.93;2.50;;;8.50;99.90;;;;;;5053669;28;20711;-60
2023/04/20 04:20:26;;;;;;;3.00;2.23;;;8.40;99.90;;;;;;5038003;28;20631;-60
2023/04/20 04:22:53;;;;;;;3.33;2.57;;;8.40;99.90;;;;;;5053070;28;20208;-60
2023/04/20 04:25:22;;;;;;;3.07;2.50;;;8.40;99.90;;;;;;5073593;28;20209;-61
2023/04/20 04:27:49;;;;;;;3.33;2.23;;;8.40;99.90;;;;;;5053430;28;20206;-60
2023/04/20 04:30:18;;;;;;;6.13;2.70;;;8.40;99.90;;;;;;5069531;28;21191;-61
2023/04/20 04:32:45;;;;;;;5.87;2.60;;;8.50;99.90;;;;;;5070673;28;20850;-60
2023/04/20 04:35:12;;;;;;;4.33;2.53;;;8.40;99.90;;;;;;5068190;28;20209;-60
2023/04/20 04:37:40;;;;;;;3.00;2.20;;;8.40;99.90;;;;;;5072693;28;20224;-60
2023/04/20 04:40:09;;;;;;;3.93;2.33;;;8.50;99.90;;;;;;5071361;28;20546;-60
2023/04/20 04:42:36;;;;;;;6.00;2.87;;;8.40;99.90;;;;;;5051687;28;20237;-60
2023/04/20 04:45:03;;;;;;;5.50;2.43;;;8.50;99.90;;;;;;5067877;28;20207;-61
2023/04/20 04:47:34;;;;;;;3.93;2.30;;;8.40;99.90;;;;;;5072413;28;20789;-66
2023/04/20 04:50:05;;;;;;;4.53;2.77;;;8.50;99.90;;;;;;5070458;28;20218;-60
2023/04/20 04:52:33;;;;;;;4.13;2.90;;;8.50;99.90;;;;;;5070752;28;20210;-60
2023/04/20 04:55:00;;;;;;;3.37;2.50;;;8.50;99.90;;;;;;5069023;28;20194;-62
2023/04/20 04:57:27;;;;;;;7.00;2.90;;;8.50;99.90;;;;;;5072339;28;20233;-61
2023/04/20 04:59:54;;;;;;;4.57;2.57;;;8.50;99.90;;;;;;5070066;28;20202;-61
2023/04/20 05:02:21;;;;;;;4.77;2.70;;;8.50;99.90;;;;;;5068551;28;20212;-62
2023/04/20 05:04:48;;;;;;;5.57;2.30;;;8.50;99.90;;;;;;5035639;28;20618;-62
2023/04/20 05:07:16;;;;;;;2.73;2.30;;;8.50;99.90;;;;;;5058282;28;20719;-61
2023/04/20 05:09:43;;;;;;;2.70;2.03;;;8.60;99.90;;;;;;5069916;28;22412;-62
2023/04/20 05:12:10;;;;;;;4.50;2.80;;;8.50;99.90;;;;;;5052426;28;20563;-61
2023/04/20 05:14:36;;;;;;;6.70;2.93;;;8.50;99.90;;;;;;5037683;28;20557;-61
2023/04/20 05:17:03;;;;;;;5.07;2.77;;;8.50;99.90;;;;;;5071394;28;20224;-62
2023/04/20 05:19:30;;;;;;;5.77;2.60;;;8.50;99.90;;;;;;5067917;28;20337;-61
2023/04/20 05:21:57;;;;;;;3.30;2.17;;;8.50;99.90;;;;;;5075074;28;20206;-61
2023/04/20 05:24:24;;;;;;;5.97;2.20;;;8.50;99.90;;;;;;5060607;28;20266;-62
2023/04/20 05:26:51;;;;;;;2.07;1.87;;;8.40;99.90;;;;;;5073813;28;20293;-62
2023/04/20 05:29:19;;;;;;;3.70;2.10;;;8.40;99.90;;;;;;5076754;28;20557;-62
2023/04/20 05:31:46;;;;;;;3.23;2.23;;;8.50;99.90;;;;;;5075316;28;20288;-62
2023/04/20 05:34:13;;;;;;;2.97;2.30;;;8.50;99.90;;;;;;5075151;28;20604;-62
2023/04/20 05:36:40;;;;;;;3.10;2.40;;;8.50;99.90;;;;;;5076978;28;20293;-61
2023/04/20 05:39:07;;;;;;;5.47;2.40;;;8.60;99.90;;;;;;5075917;28;20213;-62
2023/04/20 05:41:34;;;;;;;3.33;2.13;;;8.60;99.90;;;;;;5057193;28;20257;-61
2023/04/20 05:44:01;;;;;;;4.30;2.73;;;8.50;99.90;;;;;;5075876;28;20582;-61
2023/04/20 05:46:28;;;;;;;4.33;2.30;;;8.60;99.90;;;;;;5054297;28;20205;-61
2023/04/20 05:48:55;;;;;;;3.60;2.60;;;8.70;99.90;;;;;;5039732;28;20610;-61
2023/04/20 05:51:22;;;;;;;5.63;2.10;;;8.70;99.90;;;;;;5043563;28;20264;-62
2023/04/20 05:53:49;;;;;;;3.37;2.80;;;8.70;99.90;;;;;;5068338;28;20207;-62
2023/04/20 05:56:17;;;;;;;2.70;2.43;;;8.70;99.90;;;;;;5074720;28;20843;-62
2023/04/20 05:58:45;;;;;;;3.47;2.10;;;8.80;99.90;;;;;;5075467;28;20232;-66
2023/04/20 06:01:11;;;;;;;4.37;2.50;;;8.80;99.90;;;;;;5066053;28;20280;-61
2023/04/20 06:03:38;;;;;;;3.57;2.23;;;8.90;99.90;;;;;;5074008;28;20265;-63
2023/04/20 06:06:06;;;;;;;3.47;2.43;;;8.90;99.90;;;;;;5075163;28;20198;-62
2023/04/20 06:08:33;;;;;;;5.03;2.40;;;8.90;99.90;;;;;;5075121;28;20256;-62
2023/04/20 06:10:59;;;;;;;3.00;2.10;;;8.90;99.90;;;;;;5074223;28;20198;-65
2023/04/20 06:13:26;;;;;;;4.90;2.40;;;8.80;99.90;;;;;;5069699;28;20275;-63
2023/04/20 06:15:53;;;;;;;10.50;3.00;;;8.90;99.90;;;;;;5068562;28;20717;-62
2023/04/20 06:18:20;;;;;;;7.83;2.67;;;8.90;99.90;;;;;;5051982;28;20543;-62
2023/04/20 06:20:47;;;;;;;4.63;2.57;;;9.00;99.90;;;;;;5070321;28;20333;-62
2023/04/20 06:23:14;;;;;;;4.73;2.63;;;9.00;99.90;;;;;;5068703;28;20328;-62
2023/04/20 06:25:41;;;;;;;2.77;2.57;;;9.00;99.90;;;;;;5071452;28;20327;-68
2023/04/20 06:28:08;;;;;;;4.40;2.97;;;9.00;99.90;;;;;;5069156;28;20248;-61
2023/04/20 06:30:35;;;;;;;5.07;2.63;;;8.90;99.90;;;;;;5070952;28;20293;-62
2023/04/20 06:33:02;;;;;;;4.17;2.33;;;9.00;99.90;;;;;;5057392;28;20269;-62
2023/04/20 06:35:29;;;;;;;5.70;2.70;;;9.00;99.90;;;;;;5073668;28;20347;-62
2023/04/20 06:37:56;;;;;;;3.57;2.63;;;9.10;99.90;;;;;;5070613;28;20697;-62
2023/04/20 06:40:27;;;;;;;4.43;2.73;;;9.20;99.90;;;;;;5038045;28;20293;-62
2023/04/20 06:42:54;;;;;;;4.90;2.50;;;9.20;99.90;;;;;;5054497;28;20878;-62
2023/04/20 06:45:21;;;;;;;4.77;2.63;;;9.30;99.90;;;;;;5067057;28;20216;-62
2023/04/20 06:47:48;;;;;;;3.50;2.80;;;9.40;99.90;;;;;;4679024;28;10000320;-65
2023/04/20 06:50:15;;;;;;;3.53;2.63;;;9.50;99.90;;;;;;5063925;28;20218;-61
2023/04/20 06:52:42;;;;;;;3.77;2.63;;;9.60;99.90;;;;;;5033268;28;20227;-62
2023/04/20 06:55:09;;;;;;;4.57;3.00;;;9.50;99.90;;;;;;5066224;28;20318;-62
2023/04/20 06:57:38;;;;;;;3.23;2.20;;;9.40;99.90;;;;;;5069429;28;20198;-64
2023/04/20 07:00:07;;;;;;;4.27;2.80;;;9.30;99.90;;;;;;5049782;28;20685;-62
2023/04/20 07:02:48;;;;;;;4.63;4.00;;;9.40;99.90;;;;;;5066168;28;20199;-62
2023/04/20 07:05:16;;;;;;;4.67;2.67;;;9.30;99.90;;;;;;5048248;28;20208;-62
2023/04/20 07:07:44;;;;;;;4.47;2.37;;;9.30;99.90;;;;;;5073155;28;20228;-62
2023/04/20 07:10:12;;;;;;;5.70;2.40;;;9.50;99.90;;;;;;5068392;28;20216;-62
2023/04/20 07:12:40;;;;;;;4.23;2.23;;;9.60;99.90;;;;;;5056046;28;20204;-62
2023/04/20 07:15:10;;;;;;;3.57;2.40;;;9.60;99.90;;;;;;5066104;28;20200;-62
2023/04/20 07:17:37;;;;;;;5.07;2.80;;;9.40;99.90;;;;;;5049171;28;20759;-63
2023/04/20 07:20:06;;;;;;;4.27;2.47;;;9.60;99.90;;;;;;5071181;28;20281;-63
2023/04/20 07:22:37;;;;;;;3.87;2.37;;;9.40;99.90;;;;;;5073367;28;20200;-63
2023/04/20 07:25:07;;;;;;;4.27;2.77;;;9.50;99.90;;;;;;5069821;28;20568;-61
2023/04/20 07:27:36;;;;;;;3.73;3.17;;;9.50;99.90;;;;;;5075313;28;20203;-62
2023/04/20 07:30:05;;;;;;;3.70;2.70;;;9.30;99.90;;;;;;5077692;28;20296;-62
2023/04/20 07:32:33;;;;;;;4.17;3.27;;;9.40;99.90;;;;;;5077762;28;20209;-65
2023/04/20 07:34:59;;;;;;;4.33;2.63;;;9.40;99.90;;;;;;5070851;28;20206;-63
2023/04/20 07:37:26;;;;;;;7.67;3.20;;;9.40;99.90;;;;;;5066580;28;20962;-62
2023/04/20 07:39:53;;;;;;;5.07;3.13;;;9.40;99.90;;;;;;5069644;28;20238;-61
2023/04/20 07:42:20;;;;;;;4.93;3.10;;;9.20;99.90;;;;;;5068978;28;20243;-61
2023/04/20 07:44:48;;;;;;;3.60;3.10;;;9.30;99.90;;;;;;5073518;28;20257;-62
2023/04/20 07:47:15;;;;;;;5.03;3.07;;;9.40;99.90;;;;;;5072858;28;20723;-62
2023/04/20 07:49:42;;;;;;;6.60;3.23;;;9.40;99.90;;;;;;5071495;28;20225;-61
2023/04/20 07:52:10;;;;;;;7.20;3.67;;;9.50;99.90;;;;;;5069329;28;20308;-61
2023/04/20 07:54:44;;;;;;;4.20;3.33;;;9.50;99.90;;;;;;5067108;28;20200;-62
2023/04/20 07:57:11;;;;;;;7.00;3.53;;;9.80;99.90;;;;;;5053546;28;20200;-62
2023/04/20 07:59:39;;;;;;;5.37;2.90;;;9.90;99.90;;;;;;5074360;28;20199;-62
2023/04/20 08:02:08;;;;;;;3.97;2.80;;;9.90;99.90;;;;;;5060300;28;20208;-62
2023/04/20 08:04:39;;;;;;;3.20;2.63;;;10.30;99.90;;;;;;5074496;28;20309;-62
2023/04/20 08:07:06;;;;;;;3.37;2.77;;;10.10;99.90;;;;;;5072272;28;20208;-62
2023/04/20 08:09:33;;;;;;;4.57;3.17;;;10.30;99.90;;;;;;5074945;28;20269;-62
2023/04/20 08:12:00;;;;;;;5.87;2.90;;;10.30;99.90;;;;;;5053670;28;20200;-62
2023/04/20 08:14:27;;;;;;;5.23;3.30;;;10.70;99.90;;;;;;5075454;28;20715;-62
2023/04/20 08:16:54;;;;;;;4.23;3.10;;;11.40;99.90;;;;;;5063090;28;20302;-61
2023/04/20 08:19:21;;;;;;;4.23;3.43;;;11.40;99.90;;;;;;5075179;28;20236;-62
2023/04/20 08:21:50;;;;;;;6.40;3.20;;;11.60;99.90;;;;;;5074517;28;20711;-61
2023/04/20 08:24:17;;;;;;;6.23;3.53;;;11.40;99.90;;;;;;5076895;28;20201;-61
2023/04/20 08:26:44;;;;;;;5.13;3.33;;;11.00;99.90;;;;;;5073559;28;20196;-61
2023/04/20 08:29:11;;;;;;;3.70;3.10;;;11.00;99.90;;;;;;5060857;28;20202;-61
2023/04/20 08:31:38;;;;;;;5.90;3.50;;;11.00;99.90;;;;;;5076480;28;20198;-61
2023/04/20 08:34:05;;;;;;;3.37;2.90;;;10.80;99.90;;;;;;5026300;28;20290;-62
2023/04/20 08:36:32;;;;;;;5.03;3.80;;;10.70;99.90;;;;;;5069522;28;20909;-62
2023/04/20 08:39:09;;;;;;;5.13;3.33;;;10.80;99.90;;;;;;5064088;28;20197;-61
2023/04/20 08:41:36;;;;;;;4.07;3.43;;;10.60;99.90;;;;;;5066662;28;20196;-62
2023/04/20 08:44:03;;;;;;;3.60;3.10;;;10.70;99.90;;;;;;5074070;28;20742;-62
2023/04/20 08:46:32;;;;;;;3.73;3.20;;;10.50;99.90;;;;;;5073432;28;20304;-61
2023/04/20 08:49:03;;;;;;;6.03;3.50;;;10.30;99.90;;;;;;5076240;28;20197;-62
2023/04/20 08:51:31;;;;;;;4.73;3.30;;;10.30;99.90;;;;;;5072611;28;20255;-61
2023/04/20 08:54:04;;;;;;;3.80;3.00;;;10.30;99.90;;;;;;5072102;28;21285;-62
2023/04/20 08:56:36;;;;;;;5.33;3.57;;;10.50;99.90;;;;;;5072961;28;20571;-62
2023/04/20 08:59:11;;;;;;;5.50;3.30;;;10.40;99.90;;;;;;5072275;28;20328;-61
2023/04/20 09:01:40;;;;;;;5.00;3.30;;;10.40;99.90;;;;;;5076320;28;20260;-62
2023/04/20 09:04:25;;;;;;;3.40;3.00;;;10.40;99.90;;;;;;5080112;28;20190;-62
2023/04/20 09:06:54;;;;;;;3.70;3.00;;;10.30;99.90;;;;;;5075805;28;20205;-62
2023/04/20 09:09:22;;;;;;;5.80;3.63;;;10.40;99.90;;;;;;5077830;28;20714;-61
2023/04/20 09:12:07;;;;;;;4.63;3.47;;;10.70;99.90;;;;;;5059815;28;20202;-61
2023/04/20 09:14:45;;;;;;;4.80;3.30;;;10.90;99.90;;;;;;5077418;28;20195;-62
2023/04/20 09:17:16;;;;;;;4.07;3.67;;;11.10;99.90;;;;;;5075825;28;20291;-62
2023/04/20 09:19:44;;;;;;;5.07;4.17;;;11.20;99.90;;;;;;5077021;28;20692;-62
2023/04/20 09:22:11;;;;;;;6.30;3.60;;;11.10;99.90;;;;;;5078217;28;20224;-62
2023/04/20 09:24:40;;;;;;;4.23;2.77;;;11.20;99.90;;;;;;5061757;28;20734;-62
2023/04/20 09:27:17;;;;;;;5.20;3.67;;;11.10;99.90;;;;;;5078184;28;20240;-62
2023/04/20 09:29:56;;;;;;;4.23;3.03;;;11.00;99.90;;;;;;5078288;28;20221;-63
2023/04/20 09:32:24;;;;;;;4.70;3.40;;;11.00;99.90;;;;;;5060883;28;20312;-62
2023/04/20 09:34:51;;;;;;;3.33;2.90;;;10.90;99.90;;;;;;5078608;28;20332;-62
2023/04/20 09:37:18;;;;;;;5.30;3.57;;;10.60;99.90;;;;;;5060941;28;20759;-63
2023/04/20 09:39:45;;;;;;;3.77;3.40;;;10.30;99.90;;;;;;5061580;28;20742;-62
2023/04/20 09:42:14;;;;;;;4.27;3.87;;;10.30;99.90;;;;;;5077232;28;20694;-63
2023/04/20 09:44:44;;;;;;;6.03;3.40;;;10.50;99.90;;;;;;5078393;28;20580;-61
2023/04/20 09:47:16;;;;;;;4.23;3.40;;;10.50;99.90;;;;;;5074448;28;20210;-62
2023/04/20 09:49:45;;;;;;;4.33;2.83;;;10.50;99.90;;;;;;5077643;28;20217;-62
2023/04/20 09:52:17;;;;;;;5.90;3.03;;;10.50;99.90;;;;;;5077241;28;20584;-64
2023/04/20 09:54:44;;;;;;;4.50;3.03;;;10.40;99.90;;;;;;5079567;28;20207;-62
2023/04/20 09:57:13;;;;;;;3.23;2.93;;;10.50;99.90;;;;;;5078325;28;20206;-61
2023/04/20 09:59:45;;;;;;;4.73;2.90;;;10.30;99.90;;;;;;5060134;28;20623;-61
2023/04/20 10:02:13;;;;;;;3.53;3.10;;;10.20;99.90;;;;;;5077787;28;20199;-61
2023/04/20 10:04:56;;;;;;;5.90;3.43;;;10.40;99.90;;;;;;5077242;28;20242;-62
2023/04/20 10:07:28;;;;;;;3.90;2.50;;;10.30;99.90;;;;;;5077660;28;20682;-62
2023/04/20 10:10:05;;;;;;;3.63;3.20;;;10.40;99.90;;;;;;5056907;28;20305;-62
2023/04/20 10:12:32;;;;;;;4.60;3.00;;;10.60;99.90;;;;;;5076327;28;20240;-61
2023/04/20 10:15:00;;;;;;;3.10;2.67;;;10.50;99.90;;;;;;5058269;28;20288;-61
2023/04/20 10:17:33;;;;;;;3.60;2.13;;;10.60;99.90;;;;;;5050208;28;20559;-62
2023/04/20 10:20:00;;;;;;;5.50;3.10;;;10.40;99.90;;;;;;5077676;28;20257;-61
2023/04/20 10:22:34;;;;;;;3.30;2.63;;;10.30;99.90;;;;;;5060277;28;20292;-61
2023/04/20 10:25:16;;;;;;;3.90;2.37;;;10.20;99.90;;;;;;5061089;28;20193;-62
2023/04/20 10:28:12;;;;;;;4.30;2.70;;;10.40;99.90;;;;;;5077476;28;20261;-61
2023/04/20 10:30:49;;;;;;;3.03;2.63;;;10.40;99.90;;;;;;5042978;28;20226;-61
2023/04/20 10:33:17;;;;;;;4.37;2.93;;;10.40;99.90;;;;;;5075206;28;20193;-62
2023/04/20 10:35:53;;;;;;;2.73;2.43;;;10.10;99.90;;;;;;5058745;28;20201;-63
2023/04/20 10:38:34;;;;;;;2.63;2.33;;;10.00;99.90;;;;;;5059083;28;20205;-61
2023/04/20 10:41:11;;;;;;;3.83;2.70;;;10.00;99.90;;;;;;5077837;28;20228;-62
2023/04/20 10:43:41;;;;;;;3.53;2.60;;;10.00;99.90;;;;;;5076354;28;20616;-62
2023/04/20 10:46:17;;;;;;;4.40;2.63;;;10.00;99.90;;;;;;5077775;28;21066;-62
2023/04/20 10:48:55;;;;;;;4.53;2.50;;;10.10;99.90;;;;;;5071133;28;20201;-62
2023/04/20 10:51:22;;;;;;;3.10;2.70;;;10.30;99.90;;;;;;4699043;28;10000106;-61
2023/04/20 10:54:06;;;;;;;7.13;3.20;;;10.30;99.90;;;;;;5067527;28;21011;-62
2023/04/20 10:56:41;;;;;;;3.37;2.90;;;10.30;99.90;;;;;;5076982;28;20838;-62
2023/04/20 10:59:10;;;;;;;2.87;2.33;;;10.50;99.90;;;;;;5081022;28;20206;-62
2023/04/20 11:01:37;;;;;;;4.37;2.50;;;10.60;99.90;;;;;;5062061;28;20200;-61
2023/04/20 11:04:05;;;;;;;3.33;3.00;;;10.40;99.90;;;;;;5079573;28;20212;-62
2023/04/20 11:06:33;;;;;;;3.57;3.20;;;10.40;99.90;;;;;;5065163;28;20194;-62
2023/04/20 11:09:01;;;;;;;3.07;2.37;;;10.50;99.90;;;;;;5080028;28;20292;-62
2023/04/20 11:11:28;;;;;;;4.50;3.17;;;10.50;99.90;;;;;;5080010;28;20217;-63
2023/04/20 11:14:06;;;;;;;3.53;2.97;;;11.20;99.90;;;;;;5059155;28;20210;-62
2023/04/20 11:16:35;;;;;;;3.13;2.73;;;11.50;99.90;;;;;;5078246;28;20534;-62
2023/04/20 11:19:25;;;;;;;4.20;2.80;;;11.70;99.90;;;;;;5067671;28;20226;-62
2023/04/20 11:21:52;;;;;;;3.77;2.90;;;12.20;99.90;;;;;;5078837;28;20209;-62
2023/04/20 11:24:25;;;;;;;3.03;2.43;;;11.80;99.90;;;;;;5064929;28;20306;-62
2023/04/20 11:26:53;;;;;;;5.90;2.63;;;11.60;99.90;;;;;;5048721;28;20214;-62
2023/04/20 11:29:34;;;;;;;4.20;3.33;;;11.60;99.90;;;;;;5055778;28;20201;-62
2023/04/20 11:32:09;;;;;;;3.97;2.90;;;11.60;99.90;;;;;;5057168;28;20309;-62
2023/04/20 11:34:38;;;;;;;5.23;3.23;;;11.60;99.90;;;;;;5075179;28;20219;-61
2023/04/20 11:37:11;;;;;;;5.77;3.47;;;11.50;99.90;;;;;;5051509;28;20206;-62
2023/04/20 11:39:38;;;;;;;5.53;3.40;;;11.30;99.90;;;;;;5070096;28;20203;-61
2023/04/20 11:42:05;;;;;;;4.27;3.20;;;11.00;99.90;;;;;;5073241;28;20216;-60
2023/04/20 11:44:35;;;;;;;5.60;3.33;;;11.00;99.90;;;;;;5071488;28;20215;-63
2023/04/20 11:47:02;;;;;;;4.30;3.00;;;11.30;99.90;;;;;;5051885;28;20209;-62
2023/04/20 11:49:29;;;;;;;6.10;3.00;;;11.30;99.90;;;;;;5033758;28;20567;-62
2023/04/20 11:51:56;;;;;;;4.53;3.07;;;11.00;99.90;;;;;;5042786;28;20253;-61
2023/04/20 11:54:24;;;;;;;4.50;3.00;;;10.80;99.90;;;;;;5069966;28;20205;-61
2023/04/20 11:56:51;;;;;;;3.63;2.93;;;10.80;99.90;;;;;;5058585;28;20228;-62
2023/04/20 11:59:19;;;;;;;4.70;3.50;;;10.70;99.90;;;;;;5054713;28;20560;-62
2023/04/20 12:01:47;;;;;;;4.77;3.57;;;10.70;99.90;;;;;;5050757;28;20268;-61
2023/04/20 12:04:14;;;;;;;4.93;3.27;;;10.80;99.90;;;;;;5072415;28;20840;-61
2023/04/20 12:06:42;;;;;;;4.67;3.47;;;10.70;99.90;;;;;;5055185;28;20206;-61
2023/04/20 12:09:09;;;;;;;4.10;3.23;;;10.80;99.90;;;;;;5072336;28;20239;-62
2023/04/20 12:11:36;;;;;;;5.03;3.97;;;10.70;99.90;;;;;;5073647;28;20745;-61
2023/04/20 12:14:03;;;;;;;5.47;3.77;;;10.70;99.90;;;;;;5052727;28;20205;-61
2023/04/20 12:16:31;;;;;;;3.77;3.37;;;10.60;99.90;;;;;;5072329;28;20669;-62
2023/04/20 12:18:58;;;;;;;5.47;3.40;;;10.60;99.90;;;;;;5070951;28;20275;-62
2023/04/20 12:21:26;;;;;;;6.47;4.03;;;10.60;99.90;;;;;;5068907;28;20209;-62
2023/04/20 12:23:53;;;;;;;4.03;3.63;;;10.60;99.90;;;;;;5070790;28;20215;-63
2023/04/20 12:26:20;;;;;;;4.00;3.53;;;10.50;99.90;;;;;;5072205;28;20195;-61
2023/04/20 12:28:51;;;;;;;4.10;3.40;;;10.40;99.90;;;;;;5056849;28;22229;-63
2023/04/20 12:31:18;;;;;;;3.80;3.13;;;10.50;99.90;;;;;;5074087;28;20559;-62
2023/04/20 12:33:45;;;;;;;4.23;3.40;;;10.50;99.90;;;;;;5069425;28;20205;-62
2023/04/20 12:36:12;;;;;;;3.97;3.23;;;10.40;99.90;;;;;;5073578;28;21268;-62
2023/04/20 12:38:38;;;;;;;3.80;3.10;;;10.50;99.90;;;;;;5053126;28;20623;-63
2023/04/20 12:41:05;;;;;;;4.43;3.57;;;10.50;99.90;;;;;;5071310;28;20682;-63
2023/04/20 12:43:32;;;;;;;4.40;3.63;;;10.50;99.90;;;;;;5073333;28;20273;-63
2023/04/20 12:45:59;;;;;;;3.70;3.13;;;10.40;99.90;;;;;;5070913;28;20202;-62
2023/04/20 12:48:26;;;;;;;4.83;4.20;;;10.30;99.90;;;;;;5070713;28;20211;-62
2023/04/20 12:50:53;;;;;;;5.50;3.90;;;10.10;99.90;;;;;;5069686;28;20224;-63
2023/04/20 12:53:20;;;;;;;5.97;4.40;;;9.90;99.90;;;;;;5071302;28;20246;-62
2023/04/20 12:55:47;;;;;;;6.10;4.30;;;9.80;99.90;;;;;;5054658;28;20200;-63
2023/04/20 12:58:23;;;;;;;4.70;4.17;;;9.90;99.90;;;;;;5052263;28;20746;-63